Worcester Park, United Kingdom
Current Conditions -  °F | °C
As of 3:50 PM on Friday 19 Dec 2014 (Local Time) from EGLL Reporting Station
Few Clouds Few Clouds  
Wind Chill: 39°   Ceiling: Unl
Heat Index: 46°   Visibility: 6mi
Dew Point: 36°   Wind: 17mph
Humidity: 66%   Direction: 260°W
Pressure: 30.06"   Gusts: NA
Location:  51.38°N, 0.24°W
Report Text: EGLL 191550Z 26015KT 9999 FEW041 08/02 Q1018 NOSIG
Loading
Personal Weather Stations






























Interactive Weather Map New forecast layout! Learn more

10-Day Weather Forecast

Advertisements
Track Severe Weather on mobile